createdAt,value
2022-10-09T00:02:19.152Z,9.43
2022-10-09T00:07:21.661Z,12.27
2022-10-09T00:12:24.117Z,11.70
2022-10-09T00:17:26.570Z,10.63
2022-10-09T00:22:29.152Z,9.13
2022-10-09T00:27:31.623Z,8.85
2022-10-09T00:32:34.130Z,9.73
2022-10-09T00:37:36.561Z,9.05
2022-10-09T00:42:39.022Z,8.82
2022-10-09T00:47:43.924Z,7.93
2022-10-09T00:52:47.735Z,7.90
2022-10-09T00:57:52.047Z,8.00
2022-10-09T01:02:55.182Z,6.88
2022-10-09T01:08:17.887Z,7.28
2022-10-09T01:13:37.812Z,7.87
2022-10-09T01:18:57.394Z,7.72
2022-10-09T01:24:05.612Z,7.33
2022-10-09T01:29:09.897Z,4.63
2022-10-09T01:34:15.050Z,5.07
2022-10-09T01:39:21.693Z,6.37
2022-10-09T01:44:27.077Z,5.43
2022-10-09T01:49:53.943Z,5.30
2022-10-09T01:55:39.280Z,4.88
2022-10-09T02:00:47.546Z,5.28
2022-10-09T02:05:51.285Z,5.77
2022-10-09T02:10:56.418Z,8.05
2022-10-09T02:16:06.821Z,9.73
2022-10-09T02:21:18.851Z,8.52
2022-10-09T02:26:21.974Z,9.40
2022-10-09T02:31:30.362Z,8.00
2022-10-09T02:36:33.424Z,9.00
2022-10-09T02:41:36.196Z,8.90
2022-10-09T02:46:38.779Z,8.70
2022-10-09T02:51:41.283Z,8.73
2022-10-09T02:56:43.764Z,9.47
2022-10-09T03:01:46.312Z,8.68
2022-10-09T03:06:48.822Z,7.60
2022-10-09T03:11:51.329Z,7.50
2022-10-09T03:16:53.798Z,7.00
2022-10-09T03:21:56.241Z,6.80
2022-10-09T03:26:58.683Z,6.35
2022-10-09T03:32:01.262Z,7.50
2022-10-09T03:37:04.196Z,6.68
2022-10-09T03:42:06.695Z,6.47
2022-10-09T03:47:09.240Z,5.97
2022-10-09T03:52:11.802Z,6.03
2022-10-09T03:57:14.326Z,6.03
2022-10-09T04:02:16.802Z,5.25
2022-10-09T04:07:19.359Z,5.68
2022-10-09T04:12:21.836Z,5.97
2022-10-09T04:17:24.265Z,7.03
2022-10-09T04:22:26.747Z,6.10
2022-10-09T04:27:29.283Z,5.35
2022-10-09T04:32:31.895Z,7.28
2022-10-09T04:37:35.624Z,7.37
2022-10-09T04:42:38.392Z,5.82
2022-10-09T04:47:40.899Z,5.00
2022-10-09T04:52:43.399Z,6.60
2022-10-09T04:57:45.875Z,5.03
2022-10-09T05:02:48.606Z,0.93
2022-10-09T05:07:51.707Z,5.63
2022-10-09T05:12:54.266Z,6.27
2022-10-09T05:17:56.803Z,6.07
2022-10-09T05:22:59.232Z,5.75
2022-10-09T05:28:02.622Z,6.77
2022-10-09T05:33:05.357Z,5.97
2022-10-09T05:38:07.827Z,6.70
2022-10-09T05:43:10.248Z,5.28
2022-10-09T05:48:12.728Z,7.05
2022-10-09T05:53:15.278Z,7.70
2022-10-09T05:58:17.704Z,7.85
2022-10-09T06:03:20.120Z,7.50
2022-10-09T06:08:22.561Z,8.95
2022-10-09T06:13:25.041Z,9.43
2022-10-09T06:18:28.869Z,11.90
2022-10-09T06:23:34.299Z,13.05
2022-10-09T06:28:37.878Z,11.83
2022-10-09T06:33:41.860Z,10.20
2022-10-09T06:38:44.863Z,9.85
2022-10-09T09:10:44.414Z,10.48
2022-10-09T09:16:03.566Z,11.50
2022-10-09T09:21:32.447Z,11.27
2022-10-09T09:26:34.889Z,12.52
2022-10-09T09:31:38.771Z,11.23
2022-10-09T09:36:56.816Z,10.93
2022-10-09T09:42:20.284Z,11.93
2022-10-09T09:47:38.957Z,10.27
2022-10-09T09:52:44.657Z,10.27
2022-10-09T09:57:47.327Z,10.90
2022-10-09T10:02:51.229Z,10.63
2022-10-09T10:07:57.645Z,11.10
2022-10-09T10:13:01.553Z,11.52
2022-10-09T10:18:05.029Z,11.05
2022-10-09T10:23:34.712Z,11.37
2022-10-09T10:28:47.629Z,11.40
2022-10-09T10:33:54.267Z,10.23
2022-10-09T10:39:12.978Z,9.67
2022-10-09T10:44:35.630Z,9.68
2022-10-09T10:49:38.282Z,9.18
2022-10-09T10:55:04.968Z,11.07
2022-10-09T11:00:12.099Z,9.98
2022-10-09T11:05:29.585Z,9.32
2022-10-09T11:11:02.568Z,10.80
2022-10-09T11:16:33.871Z,10.30
2022-10-09T11:22:03.609Z,9.48
2022-10-09T11:27:37.930Z,10.07
2022-10-09T11:33:05.753Z,10.27
2022-10-09T11:38:26.217Z,11.40
2022-10-09T11:43:29.223Z,10.63
2022-10-09T11:48:44.293Z,9.83
2022-10-09T11:53:47.309Z,9.18
2022-10-09T11:59:09.868Z,10.20
2022-10-09T12:04:23.854Z,10.63
2022-10-09T12:09:40.033Z,9.75
2022-10-09T12:14:44.314Z,9.65
2022-10-09T12:19:47.372Z,9.30
2022-10-09T12:24:56.420Z,10.27
2022-10-09T12:30:04.573Z,10.13
2022-10-09T12:35:32.943Z,9.43
2022-10-09T12:40:35.474Z,9.50
2022-10-09T12:45:44.102Z,9.13
2022-10-09T12:50:47.058Z,9.05
2022-10-09T12:55:56.034Z,8.23
2022-10-09T13:01:01.041Z,8.10
2022-10-09T13:06:08.834Z,8.88
2022-10-09T13:11:31.545Z,8.10
2022-10-09T13:16:44.736Z,8.63
2022-10-09T13:21:47.244Z,10.18
2022-10-09T13:26:49.669Z,9.38
2022-10-09T13:31:52.176Z,8.27
2022-10-09T13:36:54.985Z,8.00
2022-10-09T13:41:58.567Z,9.73
2022-10-09T13:47:01.049Z,9.43
2022-10-09T13:52:03.589Z,8.43
2022-10-09T13:57:06.196Z,6.90
2022-10-09T14:02:10.373Z,6.50
2022-10-09T14:07:12.942Z,6.25
2022-10-09T14:12:15.456Z,7.45
2022-10-09T14:17:17.889Z,6.53
2022-10-09T14:22:20.966Z,6.25
2022-10-09T14:27:23.723Z,5.85
2022-10-09T14:32:26.364Z,6.40
2022-10-09T14:37:41.220Z,6.95
2022-10-09T14:42:44.555Z,7.40
2022-10-09T14:47:47.005Z,8.13
2022-10-09T14:52:49.689Z,8.32
2022-10-09T14:57:52.464Z,7.82
2022-10-09T15:02:56.432Z,9.37
2022-10-09T15:08:01.629Z,9.10
2022-10-09T15:13:04.429Z,8.10
2022-10-09T15:18:06.924Z,8.00
2022-10-09T15:23:09.382Z,7.38
2022-10-09T15:28:11.910Z,7.70
2022-10-09T15:33:14.733Z,8.73
2022-10-09T15:38:19.213Z,9.88
2022-10-09T15:43:23.826Z,9.98
2022-10-09T15:48:26.325Z,9.40
2022-10-09T15:53:30.244Z,13.02
2022-10-09T15:58:32.689Z,16.15
2022-10-09T16:03:37.252Z,13.30
2022-10-09T16:08:40.362Z,16.35
2022-10-09T16:13:45.997Z,13.60
2022-10-09T16:18:49.043Z,14.03
2022-10-09T16:23:57.324Z,11.98
2022-10-09T16:29:01.611Z,14.53
2022-10-09T16:34:05.675Z,13.23
2022-10-09T16:39:08.326Z,21.05
2022-10-09T16:44:15.324Z,14.23
2022-10-09T16:49:21.350Z,13.80
2022-10-09T16:54:40.617Z,14.27
2022-10-09T16:59:44.348Z,16.93
2022-10-09T17:04:46.988Z,11.57
2022-10-09T17:09:49.476Z,12.70
2022-10-09T17:14:52.205Z,13.93
2022-10-09T17:19:54.652Z,15.03
2022-10-09T17:24:57.101Z,16.85
2022-10-09T17:29:59.545Z,18.10
2022-10-09T17:35:02.020Z,25.10
2022-10-09T17:40:06.005Z,25.67
2022-10-09T17:45:09.171Z,25.40
2022-10-09T17:50:12.426Z,17.88
2022-10-09T17:55:17.938Z,15.53
2022-10-09T18:00:22.153Z,15.30
2022-10-09T18:05:24.616Z,14.50
2022-10-09T18:10:27.707Z,15.07
2022-10-09T18:15:30.288Z,19.15
2022-10-09T18:20:35.364Z,16.73
2022-10-09T18:25:44.910Z,16.77
2022-10-09T18:30:47.385Z,18.63
2022-10-09T18:35:49.952Z,18.40
2022-10-09T18:40:52.483Z,20.58
2022-10-09T18:45:55.496Z,24.67
2022-10-09T18:50:58.042Z,26.27
2022-10-09T18:56:00.718Z,20.80
2022-10-09T19:01:07.214Z,25.03
2022-10-09T19:06:10.500Z,22.55
2022-10-09T19:11:14.640Z,23.38
2022-10-09T19:16:18.991Z,15.23
2022-10-09T19:21:21.673Z,23.77
2022-10-09T19:26:24.227Z,26.33
2022-10-09T19:31:27.082Z,25.42
2022-10-09T19:36:33.263Z,25.48
2022-10-09T19:41:35.800Z,24.93
2022-10-09T19:46:39.880Z,25.88
2022-10-09T19:51:42.442Z,27.17
2022-10-09T19:56:44.880Z,24.73
2022-10-09T20:01:47.323Z,25.60
2022-10-09T20:06:49.780Z,26.13
2022-10-09T20:11:52.425Z,28.65
2022-10-09T20:16:54.950Z,27.80
2022-10-09T20:21:57.753Z,28.40
2022-10-09T20:27:00.247Z,26.58
2022-10-09T20:32:02.813Z,25.83
2022-10-09T20:37:05.325Z,41.45
2022-10-09T20:42:07.892Z,27.93
2022-10-09T20:47:10.456Z,24.17
2022-10-09T20:52:12.921Z,22.50
2022-10-09T20:57:15.444Z,23.60
2022-10-09T21:02:17.899Z,23.23
2022-10-09T21:07:20.339Z,26.30
2022-10-09T21:12:22.818Z,29.60
2022-10-09T21:17:25.391Z,29.67
2022-10-09T21:22:27.828Z,28.33
2022-10-09T21:27:30.254Z,27.77
2022-10-09T21:32:32.696Z,27.30
2022-10-09T21:37:37.535Z,26.77
2022-10-09T21:42:40.257Z,26.63
2022-10-09T21:47:42.853Z,28.10
2022-10-09T21:52:45.315Z,29.17
2022-10-09T21:57:47.980Z,30.35
2022-10-09T22:02:50.997Z,27.27
2022-10-09T22:07:54.640Z,31.02
2022-10-09T22:12:57.765Z,13.93
2022-10-09T22:18:00.296Z,22.10
2022-10-09T22:23:02.749Z,19.30
2022-10-09T22:28:05.820Z,15.93
2022-10-09T22:33:08.272Z,17.80
2022-10-09T22:38:10.684Z,16.50
2022-10-09T22:43:13.121Z,16.90
2022-10-09T22:48:15.573Z,15.00
2022-10-09T22:53:18.037Z,13.97
2022-10-09T22:58:20.495Z,18.80
2022-10-09T23:03:22.955Z,17.47
2022-10-09T23:08:25.411Z,10.63
2022-10-09T23:13:27.864Z,13.65
2022-10-09T23:18:30.763Z,12.07
2022-10-09T23:23:34.237Z,17.48
2022-10-09T23:28:36.945Z,16.70
2022-10-09T23:33:41.108Z,14.93
2022-10-09T23:38:43.968Z,15.10
2022-10-09T23:43:47.035Z,15.43
2022-10-09T23:48:50.357Z,15.82
2022-10-09T23:53:53.498Z,16.17
2022-10-09T23:58:56.805Z,16.23
